Time;durP1;ratioP1;P1;durP2;ratioP2;P2;SDS_P1;SDS_P2;PMS_P1;PMS_P2;Temp;Humidity;BMP_temperature;BMP_pressure;BME280_temperature;BME280_humidity;BME280_pressure;Samples;Min_cycle;Max_cycle;Signal;HPM_P1;HPM_P2
2023/05/29 00:00:54;;;;;;;5.95;3.15;;;;;;;18.14;45.10;99888.31;1087323;47;20070;-84
2023/05/29 00:01:55;;;;;;;7.13;3.10;;;;;;;18.12;45.33;99892.28;1087392;54;20034;-82
2023/05/29 00:03:01;;;;;;;5.25;3.17;;;;;;;18.12;45.39;99889.56;1087360;47;20034;-81
2023/05/29 00:04:02;;;;;;;5.47;2.83;;;;;;;18.17;45.43;99887.94;1087428;47;20029;-83
2023/05/29 00:05:06;;;;;;;5.80;3.40;;;;;;;18.19;45.11;99888.56;1087458;54;20094;-83
2023/05/29 00:06:07;;;;;;;6.05;3.22;;;;;;;18.24;44.78;99888.81;1087370;47;20022;-82
2023/05/29 00:07:11;;;;;;;5.45;3.00;;;;;;;18.24;44.99;99877.97;1087302;54;20063;-82
2023/05/29 00:08:12;;;;;;;5.57;2.78;;;;;;;18.24;44.89;99885.28;1087411;47;20057;-83
2023/05/29 00:09:16;;;;;;;5.38;2.70;;;;;;;18.27;44.94;99878.63;1087364;54;20026;-83
2023/05/29 00:10:19;;;;;;;4.25;2.30;;;;;;;18.26;45.07;99876.94;1087622;54;20056;-82
2023/05/29 00:11:23;;;;;;;5.03;2.75;;;;;;;18.24;45.05;99874.47;1087638;54;20086;-82
2023/05/29 00:12:25;;;;;;;5.95;2.63;;;;;;;18.26;44.68;99876.94;1087673;54;20057;-84
2023/05/29 00:13:28;;;;;;;4.80;2.38;;;;;;;18.28;44.61;99883.00;1087330;47;20035;-84
2023/05/29 00:14:31;;;;;;;5.88;2.80;;;;;;;18.24;44.70;99880.69;1087253;47;20061;-86
2023/05/29 00:15:35;;;;;;;4.60;2.30;;;;;;;18.28;44.54;99877.59;1087291;47;20034;-85
2023/05/29 00:16:37;;;;;;;5.43;2.80;;;;;;;18.16;44.46;99883.56;1087298;54;20054;-83
2023/05/29 00:17:42;;;;;;;5.53;2.47;;;;;;;18.20;44.40;99884.00;1087370;47;20058;-85
2023/05/29 00:18:45;;;;;;;4.63;2.40;;;;;;;18.20;44.50;99881.28;1087353;54;20061;-85
2023/05/29 00:19:49;;;;;;;5.75;2.67;;;;;;;18.12;44.52;99887.72;1087219;47;20026;-83
2023/05/29 00:20:50;;;;;;;5.68;2.88;;;;;;;18.09;44.54;99886.22;1087167;47;20046;-85
2023/05/29 00:21:56;;;;;;;4.90;2.67;;;;;;;18.07;44.79;99882.03;1087288;46;20030;-84
2023/05/29 00:22:58;;;;;;;6.38;2.90;;;;;;;18.04;44.54;99879.75;1087308;54;20113;-87
2023/05/29 00:24:02;;;;;;;5.07;2.40;;;;;;;18.07;44.66;99893.72;1087448;47;20031;-84
2023/05/29 00:25:04;;;;;;;6.47;3.60;;;;;;;17.84;45.58;99877.72;1087436;46;20023;-85
2023/05/29 00:26:10;;;;;;;5.40;3.00;;;;;;;17.93;45.38;99889.19;1087365;47;20031;-87
2023/05/29 00:27:13;;;;;;;5.38;2.60;;;;;;;17.93;45.79;99887.34;1087246;47;20030;-81
2023/05/29 00:28:16;;;;;;;5.20;2.97;;;;;;;17.96;45.75;99887.97;1087164;47;20114;-83
2023/05/29 00:29:17;;;;;;;6.55;3.53;;;;;;;17.83;46.36;99892.25;1087344;47;20105;-83
2023/05/29 00:30:21;;;;;;;8.55;3.83;;;;;;;17.90;46.07;99882.31;1087299;54;20065;-83
2023/05/29 00:31:24;;;;;;;5.18;2.65;;;;;;;17.87;46.40;99882.72;1087248;47;20449;-81
2023/05/29 00:32:28;;;;;;;5.75;3.22;;;;;;;17.87;46.67;99893.53;1087225;54;20046;-84
2023/05/29 00:33:29;;;;;;;5.90;3.05;;;;;;;17.83;46.66;99881.44;1087657;54;20035;-85
2023/05/29 00:34:33;;;;;;;6.75;3.60;;;;;;;17.83;46.88;99886.00;1087419;47;20054;-86
2023/05/29 00:35:34;;;;;;;6.55;3.47;;;;;;;17.82;47.05;99887.03;1087263;47;20030;-85
2023/05/29 00:36:38;;;;;;;7.13;3.22;;;;;;;17.77;47.55;99884.91;1087313;46;20030;-84
2023/05/29 00:37:39;;;;;;;6.25;3.15;;;;;;;17.75;47.40;99887.00;1087324;47;20046;-85
2023/05/29 00:38:43;;;;;;;6.05;3.00;;;;;;;17.76;47.34;99877.84;1087435;54;20041;-86
2023/05/29 00:39:44;;;;;;;5.50;3.00;;;;;;;17.68;47.45;99878.84;1087339;47;20026;-83
2023/05/29 00:40:48;;;;;;;6.35;3.38;;;;;;;17.62;47.72;99879.59;1087119;47;20027;-82
2023/05/29 00:41:52;;;;;;;5.07;2.97;;;;;;;17.65;48.07;99881.09;1087262;47;20045;-84
2023/05/29 00:42:56;;;;;;;5.65;3.42;;;;;;;17.61;48.00;99878.78;1087445;46;20034;-86
2023/05/29 00:43:58;;;;;;;7.43;3.60;;;;;;;17.56;48.25;99875.81;1087453;47;20031;-85
2023/05/29 00:45:01;;;;;;;7.68;3.58;;;;;;;17.50;48.46;99879.28;1087596;54;20046;-87
2023/05/29 00:46:03;;;;;;;7.55;3.50;;;;;;;17.53;48.39;99875.34;1087745;54;20030;-86
2023/05/29 00:47:08;;;;;;;5.90;3.20;;;;;;;17.53;48.16;99881.63;1087664;54;20106;-87
2023/05/29 00:48:09;;;;;;;6.85;3.40;;;;;;;17.47;48.55;99871.59;1087219;47;20026;-84
2023/05/29 00:49:16;;;;;;;6.20;3.40;;;;;;;17.42;48.60;99880.28;1087322;54;20042;-87
2023/05/29 00:50:21;;;;;;;6.65;3.50;;;;;;;17.38;48.43;99876.28;1087483;47;20051;-84
2023/05/29 00:51:25;;;;;;;6.68;3.42;;;;;;;17.34;48.56;99872.28;1087191;46;20026;-86
2023/05/29 00:52:27;;;;;;;5.80;3.20;;;;;;;17.38;48.61;99867.34;1087583;54;20026;-86
2023/05/29 00:53:31;;;;;;;6.05;3.38;;;;;;;17.29;48.75;99867.47;1087753;54;20035;-85
2023/05/29 00:54:32;;;;;;;7.03;3.58;;;;;;;17.35;48.73;99871.25;1087711;54;20034;-88
2023/05/29 00:55:37;;;;;;;8.48;3.17;;;;;;;17.40;48.89;99868.81;1087370;47;20030;-86
2023/05/29 00:56:38;;;;;;;5.38;2.80;;;;;;;17.37;48.81;99876.47;1087387;47;20038;-86
2023/05/29 00:57:46;;;;;;;5.03;2.83;;;;;;;17.40;48.91;99859.88;1087464;47;20035;-87
2023/05/29 00:58:49;;;;;;;5.82;3.33;;;;;;;17.43;48.74;99873.00;1087476;54;20027;-84
2023/05/29 00:59:54;;;;;;;5.80;3.17;;;;;;;17.41;48.77;99869.66;1087439;46;20037;-85
2023/05/29 01:00:55;;;;;;;6.07;3.20;;;;;;;17.42;48.37;99871.31;1087555;47;20093;-86
2023/05/29 01:02:00;;;;;;;6.03;3.13;;;;;;;17.39;48.58;99867.16;1087306;47;20082;-86
2023/05/29 01:03:04;;;;;;;5.28;3.05;;;;;;;17.41;48.44;99870.50;1087461;47;20027;-87
2023/05/29 01:04:09;;;;;;;7.22;2.90;;;;;;;17.34;48.59;99872.28;1091190;39;20323;-85
2023/05/29 01:05:11;;;;;;;6.55;3.47;;;;;;;17.20;48.90;99865.91;1087482;47;20082;-88
2023/05/29 01:06:15;;;;;;;5.80;3.33;;;;;;;17.06;49.12;99875.75;1087427;47;20104;-87
2023/05/29 01:07:19;;;;;;;5.57;3.22;;;;;;;17.08;48.94;99876.41;1087483;47;20043;-85
2023/05/29 01:08:23;;;;;;;5.90;3.15;;;;;;;17.02;49.02;99874.47;1087407;54;20046;-86
2023/05/29 01:09:24;;;;;;;6.65;3.38;;;;;;;16.96;48.91;99867.13;1087351;46;20038;-84
2023/05/29 01:10:28;;;;;;;6.18;3.30;;;;;;;16.87;49.14;99868.22;1087348;46;20030;-84
2023/05/29 01:11:37;;;;;;;7.88;3.80;;;;;;;16.79;49.20;99866.50;1087284;54;20038;-83
2023/05/29 01:12:50;;;;;;;6.13;2.90;;;;;;;16.78;49.12;99875.63;1087305;47;20061;-84
2023/05/29 01:13:55;;;;;;;6.63;3.78;;;;;;;16.77;49.12;99877.47;1087337;46;20042;-82
2023/05/29 01:15:16;;;;;;;5.97;3.33;;;;;;;16.69;49.40;99870.34;1087343;54;20061;-84
2023/05/29 01:16:27;;;;;;;6.68;3.45;;;;;;;16.65;49.40;99879.81;1087367;47;20099;-83
2023/05/29 01:17:40;;;;;;;11.60;3.35;;;;;;;16.55;49.75;99881.97;1087364;47;20098;-84
2023/05/29 01:18:51;;;;;;;8.25;3.80;;;;;;;16.57;49.92;99871.84;1087507;54;20030;-83
2023/05/29 01:20:13;;;;;;;7.63;3.70;;;;;;;16.49;50.82;99875.47;1087474;46;20034;-87
2023/05/29 01:21:22;;;;;;;5.78;3.13;;;;;;;16.56;50.07;99874.72;1087356;54;20038;-85
2023/05/29 01:22:37;;;;;;;9.15;3.33;;;;;;;16.53;50.31;99870.56;1087291;47;20037;-87
2023/05/29 01:23:58;;;;;;;6.45;3.83;;;;;;;16.40;50.69;99873.06;1087328;47;20029;-85
2023/05/29 01:25:14;;;;;;;6.78;3.38;;;;;;;16.48;50.35;99867.56;1087312;47;20042;-88
2023/05/29 01:26:25;;;;;;;6.03;3.15;;;;;;;16.45;50.81;99870.63;1087394;54;20038;-84
2023/05/29 01:27:34;;;;;;;6.88;3.30;;;;;;;16.47;50.57;99866.75;1087314;47;20068;-84
2023/05/29 01:28:41;;;;;;;8.07;3.65;;;;;;;16.40;50.65;99873.91;1087295;54;20061;-84
2023/05/29 01:29:47;;;;;;;5.82;3.53;;;;;;;16.27;50.56;99869.16;1087461;47;20030;-85
2023/05/29 01:30:50;;;;;;;6.72;3.92;;;;;;;16.28;50.93;99867.31;1087477;47;20033;-85
2023/05/29 01:31:54;;;;;;;7.35;4.10;;;;;;;16.24;50.83;99866.84;1087453;54;20041;-84
2023/05/29 01:32:56;;;;;;;7.28;3.50;;;;;;;16.25;50.76;99868.50;1087429;47;20019;-86
2023/05/29 01:34:02;;;;;;;7.07;3.75;;;;;;;16.29;50.43;99869.00;1087360;47;20042;-84
2023/05/29 01:35:04;;;;;;;7.60;4.10;;;;;;;16.15;50.64;99865.28;1087403;54;20034;-85
2023/05/29 01:36:09;;;;;;;8.52;3.72;;;;;;;16.16;50.88;99875.88;1087356;47;20054;-84
2023/05/29 01:37:10;;;;;;;8.15;3.95;;;;;;;16.09;50.53;99869.56;1087440;47;20070;-84
2023/05/29 01:38:13;;;;;;;6.10;3.45;;;;;;;16.13;50.97;99870.00;1087527;47;20030;-85
2023/05/29 01:39:15;;;;;;;8.73;4.00;;;;;;;16.06;50.88;99876.13;1087454;47;20029;-84
2023/05/29 01:40:19;;;;;;;6.30;3.50;;;;;;;16.14;50.55;99871.69;1087348;47;20038;-84
2023/05/29 01:41:21;;;;;;;8.93;4.13;;;;;;;16.11;50.91;99880.97;1087260;47;20099;-85
2023/05/29 01:42:26;;;;;;;6.70;3.47;;;;;;;16.19;50.49;99870.13;1087318;54;20123;-83
2023/05/29 01:43:30;;;;;;;7.05;3.65;;;;;;;16.11;50.21;99872.06;1087313;47;20030;-84
2023/05/29 01:44:34;;;;;;;6.45;3.03;;;;;;;16.22;49.97;99868.91;1087286;47;20046;-85
2023/05/29 01:45:36;;;;;;;6.13;3.45;;;;;;;16.28;49.76;99872.72;1087348;54;20117;-84
2023/05/29 01:46:41;;;;;;;8.48;3.22;;;;;;;16.22;49.84;99872.41;1087725;54;20034;-85
2023/05/29 01:47:42;;;;;;;6.88;3.20;;;;;;;16.20;49.86;99870.94;1087809;54;20094;-85
2023/05/29 01:48:47;;;;;;;6.38;3.28;;;;;;;16.19;49.90;99866.56;1087297;46;20015;-84
2023/05/29 01:49:50;;;;;;;7.03;3.35;;;;;;;16.21;49.31;99864.53;1087310;47;20046;-84
2023/05/29 01:50:54;;;;;;;7.00;3.47;;;;;;;16.20;49.51;99869.06;1087297;47;20091;-84
2023/05/29 01:51:55;;;;;;;5.95;3.10;;;;;;;16.23;49.54;99873.28;1087410;54;20053;-83
2023/05/29 01:52:59;;;;;;;6.68;3.15;;;;;;;16.21;49.33;99869.91;1087435;46;20086;-86
2023/05/29 01:54:00;;;;;;;7.22;3.90;;;;;;;16.19;49.25;99866.56;1087377;54;20030;-85
2023/05/29 01:55:04;;;;;;;7.13;3.30;;;;;;;16.24;49.00;99871.41;1087631;39;20382;-86
2023/05/29 01:56:06;;;;;;;6.45;3.42;;;;;;;16.13;49.48;99870.84;1087301;47;20836;-85
2023/05/29 01:57:10;;;;;;;6.82;3.03;;;;;;;16.16;49.22;99867.78;1087270;47;20037;-84
2023/05/29 01:58:12;;;;;;;6.50;3.25;;;;;;;16.16;49.25;99869.63;1087261;47;20026;-84
2023/05/29 01:59:20;;;;;;;6.47;3.38;;;;;;;16.16;49.03;99867.78;1087323;47;20086;-84
2023/05/29 02:00:21;;;;;;;7.60;3.70;;;;;;;16.12;49.09;99862.94;1087193;47;20027;-86
2023/05/29 02:01:26;;;;;;;5.45;2.90;;;;;;;16.22;48.92;99858.94;1087377;47;20049;-87
2023/05/29 02:02:27;;;;;;;6.15;2.85;;;;;;;16.21;48.71;99864.53;1087300;54;20038;-85
2023/05/29 02:03:31;;;;;;;8.02;3.15;;;;;;;16.11;48.84;99866.66;1087549;54;20039;-84
2023/05/29 02:04:32;;;;;;;6.30;3.30;;;;;;;16.14;48.76;99866.28;1087298;47;20026;-85
2023/05/29 02:05:36;;;;;;;5.75;3.22;;;;;;;16.12;48.71;99866.47;1087245;47;20039;-84
2023/05/29 02:06:38;;;;;;;6.90;3.80;;;;;;;16.18;48.85;99862.19;1087320;54;20061;-85
2023/05/29 02:07:42;;;;;;;6.72;3.00;;;;;;;16.14;48.78;99860.91;1087349;47;20034;-87
2023/05/29 02:08:43;;;;;;;5.97;3.03;;;;;;;16.20;48.56;99860.97;1087487;47;20027;-85
2023/05/29 02:09:47;;;;;;;7.70;3.40;;;;;;;16.13;48.70;99860.03;1087497;47;20053;-84
2023/05/29 02:10:48;;;;;;;6.38;3.40;;;;;;;16.19;48.66;99861.16;1087306;47;20027;-86
2023/05/29 02:11:52;;;;;;;4.90;2.75;;;;;;;16.18;48.44;99863.03;1087217;46;20030;-84
2023/05/29 02:12:53;;;;;;;5.13;2.47;;;;;;;16.32;48.42;99860.50;1087522;47;20050;-85
2023/05/29 02:13:57;;;;;;;5.50;2.95;;;;;;;16.36;48.13;99859.13;1087166;47;20061;-84
2023/05/29 02:15:01;;;;;;;6.97;2.70;;;;;;;16.42;47.86;99863.75;1087393;47;20047;-86
2023/05/29 02:16:06;;;;;;;4.90;2.80;;;;;;;16.43;47.74;99853.81;1087371;47;20030;-86
2023/05/29 02:17:09;;;;;;;5.88;2.80;;;;;;;16.43;47.89;99862.75;1087117;47;20074;-86
2023/05/29 02:18:14;;;;;;;5.47;2.70;;;;;;;16.42;47.95;99858.38;1087218;47;20045;-86
2023/05/29 02:19:16;;;;;;;6.60;2.85;;;;;;;16.47;47.96;99855.09;1087325;54;20054;-85
2023/05/29 02:20:21;;;;;;;5.93;2.67;;;;;;;16.53;47.74;99849.78;1086956;47;20050;-85
2023/05/29 02:21:22;;;;;;;5.20;2.38;;;;;;;16.57;47.62;99855.66;1087176;47;20031;-84
2023/05/29 02:22:25;;;;;;;5.80;2.33;;;;;;;16.57;47.55;99855.66;1087179;47;20030;-84
2023/05/29 02:23:27;;;;;;;5.43;2.70;;;;;;;16.60;47.64;99857.13;1087180;54;20030;-85
2023/05/29 02:24:30;;;;;;;6.13;2.95;;;;;;;16.59;47.42;99859.00;1087516;54;20041;-85
2023/05/29 02:25:32;;;;;;;5.82;2.75;;;;;;;16.62;47.49;99849.69;1087493;54;20065;-87
2023/05/29 02:26:37;;;;;;;5.63;2.75;;;;;;;16.53;47.42;99859.75;1087280;47;20026;-85
2023/05/29 02:27:38;;;;;;;5.60;2.60;;;;;;;16.49;47.65;99858.47;1087403;54;20061;-86
2023/05/29 02:28:43;;;;;;;6.28;2.85;;;;;;;16.45;47.65;99855.31;1087469;46;20039;-86
2023/05/29 02:29:44;;;;;;;8.05;3.10;;;;;;;16.43;47.38;99854.66;1087384;54;20034;-85
2023/05/29 02:30:51;;;;;;;5.78;2.83;;;;;;;16.49;47.31;99858.47;1087545;47;20038;-86
2023/05/29 02:31:52;;;;;;;7.35;3.13;;;;;;;16.53;47.04;99865.16;1087317;47;20078;-86
2023/05/29 02:32:56;;;;;;;4.82;2.67;;;;;;;16.61;47.09;99856.97;1087421;47;20054;-86
2023/05/29 02:33:57;;;;;;;4.53;2.50;;;;;;;16.66;46.97;99849.13;1087442;46;20026;-85
2023/05/29 02:35:01;;;;;;;5.72;2.75;;;;;;;16.67;46.82;99863.47;1087475;47;20026;-86
2023/05/29 02:36:02;;;;;;;5.20;2.22;;;;;;;16.64;46.83;99861.13;1087526;54;20027;-86
2023/05/29 02:37:08;;;;;;;5.40;2.58;;;;;;;16.68;47.08;99863.25;1087418;47;20061;-85
2023/05/29 02:38:09;;;;;;;6.22;2.60;;;;;;;16.64;47.01;99861.94;1087636;47;20111;-85
2023/05/29 02:39:13;;;;;;;5.63;2.92;;;;;;;16.64;47.03;99866.53;1087675;47;20014;-87
2023/05/29 02:40:15;;;;;;;5.30;2.50;;;;;;;16.68;47.03;99862.41;1087646;47;20022;-87
2023/05/29 02:41:18;;;;;;;4.30;2.00;;;;;;;16.65;47.25;99858.22;1087624;54;20066;-86
2023/05/29 02:42:19;;;;;;;4.70;2.33;;;;;;;16.61;47.62;99861.50;1087420;47;20038;-85
2023/05/29 02:43:25;;;;;;;4.75;2.50;;;;;;;16.55;47.63;99863.09;1087490;47;20048;-86
2023/05/29 02:44:26;;;;;;;5.65;2.70;;;;;;;16.45;48.23;99867.94;1087570;54;20046;-85
2023/05/29 02:45:30;;;;;;;6.40;3.35;;;;;;;16.34;48.36;99872.78;1087197;47;20034;-85
2023/05/29 02:46:33;;;;;;;6.82;3.17;;;;;;;16.35;48.60;99871.75;1087399;54;20026;-86
2023/05/29 02:47:37;;;;;;;6.30;3.20;;;;;;;16.32;48.64;99874.00;1087475;54;20034;-86
2023/05/29 02:48:39;;;;;;;5.85;2.78;;;;;;;16.37;48.48;99869.72;1087338;47;20027;-85
2023/05/29 02:49:43;;;;;;;6.07;2.78;;;;;;;16.41;48.55;99866.66;1087341;47;20057;-84
2023/05/29 02:50:45;;;;;;;6.50;2.67;;;;;;;16.42;48.39;99873.72;1087244;54;20094;-86
2023/05/29 02:51:48;;;;;;;4.85;2.60;;;;;;;16.47;48.07;99865.91;1087401;47;20014;-86
2023/05/29 02:52:50;;;;;;;5.38;2.40;;;;;;;16.47;48.42;99871.28;1087382;47;20034;-85
2023/05/29 02:53:53;;;;;;;6.68;2.97;;;;;;;16.48;48.02;99872.97;1087280;54;20090;-85
2023/05/29 02:54:55;;;;;;;6.07;2.90;;;;;;;16.50;48.00;99874.44;1087158;47;20030;-86
2023/05/29 02:56:00;;;;;;;4.63;2.13;;;;;;;16.51;48.05;99873.44;1087378;47;20031;-84
2023/05/29 02:57:02;;;;;;;5.00;2.42;;;;;;;16.48;48.00;99876.50;1087258;47;20566;-85
2023/05/29 02:58:06;;;;;;;4.13;1.95;;;;;;;16.50;47.99;99876.31;1087230;54;20031;-85
2023/05/29 02:59:07;;;;;;;5.18;2.55;;;;;;;16.46;48.37;99875.00;1087527;54;20032;-86
2023/05/29 03:00:13;;;;;;;4.95;2.63;;;;;;;16.44;48.19;99886.00;1088239;39;20213;-86
2023/05/29 03:01:14;;;;;;;4.45;2.10;;;;;;;16.46;47.95;99885.81;1087364;47;20026;-85
2023/05/29 03:02:21;;;;;;;4.28;1.95;;;;;;;16.42;48.34;99879.13;1087229;47;20031;-85
2023/05/29 03:03:22;;;;;;;4.47;2.35;;;;;;;16.42;48.26;99879.94;1087208;54;20031;-85
2023/05/29 03:04:26;;;;;;;4.38;2.25;;;;;;;16.35;48.36;99881.72;1087266;47;20042;-86
2023/05/29 03:05:30;;;;;;;4.85;2.33;;;;;;;16.34;48.55;99871.97;1087224;54;20038;-84
2023/05/29 03:06:32;;;;;;;4.22;2.00;;;;;;;16.33;48.61;99876.53;1087510;54;20031;-84
2023/05/29 03:07:37;;;;;;;4.65;2.20;;;;;;;16.26;48.92;99874.75;1087185;47;20026;-85
2023/05/29 03:08:39;;;;;;;4.85;2.10;;;;;;;16.29;48.81;99866.28;1087011;47;20050;-86
2023/05/29 03:09:44;;;;;;;4.65;2.15;;;;;;;16.26;48.93;99862.09;1087102;54;20102;-84
2023/05/29 03:10:45;;;;;;;4.80;2.53;;;;;;;16.26;49.04;99864.78;1087021;47;20022;-85
2023/05/29 03:11:50;;;;;;;4.65;2.30;;;;;;;16.27;48.88;99869.16;1087131;47;20065;-86
2023/05/29 03:12:51;;;;;;;4.85;2.67;;;;;;;16.26;48.70;99872.88;1087215;47;20079;-85
2023/05/29 03:13:55;;;;;;;7.32;2.70;;;;;;;16.14;49.15;99869.81;1087032;47;20090;-84
2023/05/29 03:14:57;;;;;;;6.68;2.45;;;;;;;16.11;49.27;99872.06;1087178;54;20027;-84
2023/05/29 03:16:00;;;;;;;5.85;2.80;;;;;;;16.02;49.34;99877.53;1087009;47;20082;-84
2023/05/29 03:17:02;;;;;;;6.50;2.50;;;;;;;15.97;49.17;99877.22;1087058;47;20023;-84
2023/05/29 03:18:08;;;;;;;6.72;2.67;;;;;;;15.89;49.59;99875.47;1087142;47;20035;-86
2023/05/29 03:19:10;;;;;;;5.18;2.83;;;;;;;15.74;49.63;99877.25;1087153;47;20050;-83
2023/05/29 03:20:15;;;;;;;5.85;2.85;;;;;;;15.71;49.67;99878.47;1087056;47;20098;-86
2023/05/29 03:21:16;;;;;;;5.43;2.88;;;;;;;15.79;49.87;99882.09;1087131;54;20030;-83
2023/05/29 03:22:20;;;;;;;5.70;2.78;;;;;;;15.85;49.52;99884.13;1086916;54;20038;-86
2023/05/29 03:23:22;;;;;;;5.63;2.53;;;;;;;15.87;49.51;99888.28;1089074;39;20382;-84
2023/05/29 03:24:27;;;;;;;6.50;2.97;;;;;;;15.90;49.55;99879.84;1087016;47;20027;-85
2023/05/29 03:25:29;;;;;;;5.20;2.70;;;;;;;15.92;49.56;99873.44;1087123;47;20054;-85
2023/05/29 03:26:33;;;;;;;4.63;2.50;;;;;;;15.93;49.45;99881.34;1087036;47;20042;-85
2023/05/29 03:27:34;;;;;;;5.40;2.75;;;;;;;15.90;49.54;99879.00;1087038;54;20043;-85
2023/05/29 03:28:48;;;;;;;5.13;2.30;;;;;;;15.87;49.51;99877.50;1087142;47;20058;-83
2023/05/29 03:29:49;;;;;;;5.68;3.00;;;;;;;15.85;49.43;99878.72;1087018;47;20030;-82
2023/05/29 03:30:53;;;;;;;6.45;2.65;;;;;;;15.85;49.45;99879.53;1087043;47;20030;-83
2023/05/29 03:31:56;;;;;;;6.45;2.83;;;;;;;15.81;49.72;99878.22;1087144;47;20042;-85
2023/05/29 03:33:04;;;;;;;4.53;2.40;;;;;;;15.78;49.63;99872.34;1087524;47;20094;-85
2023/05/29 03:34:31;;;;;;;6.88;3.28;;;;;;;15.76;49.96;99872.53;1087390;47;20330;-86
2023/05/29 03:35:34;;;;;;;5.28;2.47;;;;;;;15.81;49.46;99874.69;1087640;47;20042;-84
2023/05/29 03:36:38;;;;;;;5.10;2.20;;;;;;;15.81;49.63;99877.38;1087502;54;20045;-83
2023/05/29 03:37:40;;;;;;;5.65;2.60;;;;;;;15.81;49.55;99874.69;1087811;54;20042;-87
2023/05/29 03:38:44;;;;;;;5.75;2.35;;;;;;;15.82;49.65;99876.34;1087556;47;20027;-86
2023/05/29 03:39:45;;;;;;;5.60;2.65;;;;;;;15.74;50.05;99870.03;1087521;54;20042;-84
2023/05/29 03:40:51;;;;;;;5.75;2.60;;;;;;;15.81;49.94;99878.22;1088085;46;20051;-85
2023/05/29 03:41:52;;;;;;;4.53;2.30;;;;;;;15.82;49.88;99873.66;1087893;47;20034;-85
2023/05/29 03:42:58;;;;;;;4.60;2.17;;;;;;;15.85;49.95;99876.84;1088529;47;20030;-86
2023/05/29 03:44:00;;;;;;;4.38;2.25;;;;;;;15.82;50.15;99869.09;1088474;47;20075;-84
2023/05/29 03:45:09;;;;;;;4.63;2.33;;;;;;;15.73;50.24;99873.75;1088295;47;20082;-86
2023/05/29 03:46:17;;;;;;;;;;;;;;;15.62;50.95;99879.56;1088606;47;20125;-86
2023/05/29 03:47:21;;;;;;;5.95;2.65;;;;;;;15.65;50.41;99883.75;1088527;47;19923;-84
2023/05/29 03:48:24;;;;;;;5.43;2.58;;;;;;;15.64;50.76;99874.84;1088496;47;20010;-85
2023/05/29 03:50:00;;;;;;;7.63;2.95;;;;;;;15.68;50.78;99875.31;1088305;47;20026;-85
2023/05/29 03:51:06;;;;;;;6.03;2.63;;;;;;;15.61;50.70;99877.88;1088222;47;20034;-85
2023/05/29 03:52:15;;;;;;;5.90;2.70;;;;;;;15.56;50.71;99878.44;1088459;46;20466;-86
2023/05/29 04:38:04;;;;;;;4.85;2.20;;;;;;;15.42;52.46;99922.34;1086650;54;20031;-87
2023/05/29 04:39:07;;;;;;;4.43;2.30;;;;;;;15.39;52.54;99928.91;1087262;47;20034;-87
2023/05/29 04:40:13;;;;;;;5.60;2.67;;;;;;;15.40;52.77;99927.06;1087312;47;20959;-88
2023/05/29 04:41:15;;;;;;;4.60;2.50;;;;;;;15.40;52.68;99929.75;1087235;46;21188;-87
2023/05/29 04:42:18;;;;;;;5.95;2.90;;;;;;;15.39;53.01;99939.69;1088745;39;21030;-86
2023/05/29 04:43:20;;;;;;;7.63;3.72;;;;;;;15.33;53.25;99942.25;1087439;46;20083;-87
2023/05/29 04:44:35;;;;;;;5.63;3.00;;;;;;;15.30;53.44;99930.00;1087425;46;20034;-85
2023/05/29 04:45:36;;;;;;;6.53;3.15;;;;;;;15.32;53.06;99936.00;1087566;46;20026;-85
2023/05/29 04:46:43;;;;;;;7.13;3.15;;;;;;;15.19;53.64;99946.56;1087108;46;20037;-87
2023/05/29 04:47:45;;;;;;;6.53;3.40;;;;;;;15.15;53.85;99958.69;1086982;47;20051;-85
2023/05/29 04:48:52;;;;;;;6.88;3.10;;;;;;;15.06;53.96;99958.72;1088486;39;21307;-84
2023/05/29 04:49:54;;;;;;;7.15;3.13;;;;;;;15.16;53.89;99949.59;1087041;47;20026;-87
2023/05/29 04:50:59;;;;;;;7.40;3.60;;;;;;;15.18;53.47;99959.16;1086939;47;20105;-86
2023/05/29 04:52:02;;;;;;;6.47;3.45;;;;;;;15.13;54.01;99951.63;1087185;47;20022;-86
2023/05/29 04:53:09;;;;;;;7.00;3.10;;;;;;;15.16;53.82;99954.97;1087450;46;20029;-88
2023/05/29 04:54:11;;;;;;;6.88;3.10;;;;;;;15.27;53.65;99959.97;1087173;46;20034;-82
2023/05/29 04:55:16;;;;;;;5.25;2.65;;;;;;;15.29;53.49;99958.75;1087225;47;20136;-88
2023/05/29 04:56:18;;;;;;;4.78;2.83;;;;;;;15.37;53.15;99947.09;1087260;54;20031;-86
2023/05/29 04:57:23;;;;;;;5.65;2.83;;;;;;;15.40;53.14;99962.91;1087320;46;20893;-87
2023/05/29 04:58:26;;;;;;;5.03;2.60;;;;;;;15.48;53.04;99953.09;1087359;46;20023;-87
2023/05/29 04:59:30;;;;;;;5.90;2.50;;;;;;;15.52;53.15;99954.41;1087160;47;20057;-85
2023/05/29 05:00:31;;;;;;;4.43;2.47;;;;;;;15.55;52.90;99952.19;1087159;54;20042;-87
2023/05/29 05:01:36;;;;;;;4.30;2.45;;;;;;;15.55;53.01;99959.44;1087169;47;20023;-86
2023/05/29 05:02:37;;;;;;;5.82;3.08;;;;;;;15.40;53.11;99957.50;1087190;46;20053;-86
2023/05/29 05:03:41;;;;;;;8.63;4.18;;;;;;;15.24;53.84;99953.09;1087455;46;20053;-83
2023/05/29 05:04:42;;;;;;;9.05;4.30;;;;;;;15.12;53.98;99960.69;1087174;46;20030;-87
2023/05/29 05:05:47;;;;;;;6.90;3.70;;;;;;;15.08;54.09;99966.63;1087076;47;21234;-85
2023/05/29 05:06:51;;;;;;;6.85;3.75;;;;;;;15.10;54.02;99968.13;1087157;51;20038;-84
2023/05/29 05:07:55;;;;;;;7.82;2.90;;;;;;;15.05;54.04;99964.28;1087158;47;20023;-85
2023/05/29 05:08:58;;;;;;;6.32;3.28;;;;;;;15.12;53.89;99966.09;1087231;47;20051;-86
2023/05/29 05:10:02;;;;;;;7.90;3.97;;;;;;;15.06;54.10;99965.97;1087190;54;20042;-84
2023/05/29 05:11:03;;;;;;;5.78;3.08;;;;;;;15.11;53.88;99958.19;1087268;47;20026;-86
2023/05/29 05:12:08;;;;;;;8.85;4.22;;;;;;;14.96;53.76;99966.19;1087055;47;21278;-85
2023/05/29 05:13:11;;;;;;;6.40;3.65;;;;;;;15.02;53.61;99976.22;1087230;47;20078;-83
2023/05/29 05:14:14;;;;;;;7.32;3.67;;;;;;;15.01;53.67;99973.72;1087198;46;20032;-85
2023/05/29 05:15:18;;;;;;;7.05;3.53;;;;;;;15.04;53.86;99981.47;1087022;54;20055;-86
2023/05/29 05:16:19;;;;;;;6.82;3.55;;;;;;;14.97;53.69;99975.94;1087061;47;20921;-85
2023/05/29 05:17:23;;;;;;;7.13;3.53;;;;;;;15.07;53.59;99973.00;1087001;47;20830;-86
2023/05/29 05:18:24;;;;;;;7.03;3.97;;;;;;;15.08;53.92;99970.16;1087104;54;20128;-85
2023/05/29 05:19:35;;;;;;;7.32;3.53;;;;;;;15.02;53.93;99980.78;1087487;39;20801;-85
2023/05/29 05:20:36;;;;;;;6.53;3.83;;;;;;;15.07;53.85;99973.88;1088074;39;21072;-84
2023/05/29 05:21:40;;;;;;;6.40;3.78;;;;;;;15.23;53.63;99977.47;1087101;47;20092;-85
2023/05/29 05:22:42;;;;;;;9.90;4.63;;;;;;;15.19;53.41;99974.31;1086916;47;20026;-85
2023/05/29 05:23:45;;;;;;;6.82;3.70;;;;;;;15.32;53.12;99975.59;1087124;47;20944;-86
2023/05/29 05:24:49;;;;;;;10.52;4.15;;;;;;;15.41;52.74;99980.72;1088124;31;20951;-84
2023/05/29 05:25:55;;;;;;;5.22;2.97;;;;;;;15.50;52.74;99980.69;1087311;47;20046;-86
2023/05/29 05:26:57;;;;;;;5.35;3.15;;;;;;;15.42;52.72;99984.28;1087448;46;20022;-87
2023/05/29 05:28:02;;;;;;;7.25;3.50;;;;;;;15.39;52.84;99982.78;1087144;47;20027;-84
2023/05/29 05:29:04;;;;;;;5.53;3.10;;;;;;;15.36;53.07;99988.53;1087553;47;20034;-85
2023/05/29 05:30:13;;;;;;;8.23;3.55;;;;;;;15.33;52.60;99988.88;1087325;46;20102;-84
2023/05/29 05:31:14;;;;;;;7.57;3.42;;;;;;;15.36;52.74;99980.44;1087342;46;20030;-84
2023/05/29 05:32:18;;;;;;;8.10;3.30;;;;;;;15.35;52.73;99988.72;1087290;46;20061;-84
2023/05/29 05:33:22;;;;;;;8.85;3.03;;;;;;;15.23;52.98;99982.88;1087353;54;20061;-84
2023/05/29 08:25:02;;;;;;;8.70;3.95;;;;;;;21.79;39.45;100022.78;1086661;54;20030;-83
2023/05/29 08:26:03;;;;;;;7.18;3.55;;;;;;;22.08;39.26;100014.22;1088632;39;20315;-86
2023/05/29 08:27:07;;;;;;;5.03;2.67;;;;;;;22.33;38.75;100018.81;1088083;54;20038;-84
2023/05/29 08:28:08;;;;;;;5.68;2.90;;;;;;;22.24;38.82;100021.84;1087932;54;20086;-87
2023/05/29 08:29:12;;;;;;;5.45;3.20;;;;;;;22.39;38.96;100017.91;1091654;46;20065;-86
2023/05/29 08:30:14;;;;;;;6.15;3.55;;;;;;;22.33;38.96;100021.56;1087559;46;20078;-84
2023/05/29 08:33:36;;;;;;;5.78;3.10;;;;;;;23.09;37.76;100008.63;1087869;54;20023;-85
2023/05/29 08:34:37;;;;;;;6.53;3.05;;;;;;;22.73;38.26;100010.31;1087717;46;20095;-85
2023/05/29 08:35:42;;;;;;;7.95;3.60;;;;;;;22.86;38.22;100010.13;1087563;46;20102;-85
2023/05/29 08:36:43;;;;;;;7.30;3.67;;;;;;;22.90;37.59;100016.81;1087584;54;20034;-85
2023/05/29 08:37:47;;;;;;;7.88;3.47;;;;;;;23.00;37.85;100015.44;1087616;47;20026;-84
2023/05/29 08:38:48;;;;;;;6.20;3.30;;;;;;;22.92;37.77;100013.03;1087504;47;20026;-84
2023/05/29 08:39:51;;;;;;;7.90;3.65;;;;;;;23.03;37.67;100009.56;1087489;47;20018;-84